50.1°F
Current conditions from King Hill
Updated every 5 minutes
 
  Sunday April 20, 2014

Station Historical Data
Daily Summary for May 8, 2011 Units:  Metric    English   Both
« Previous Day
Next Day »
Daily Weekly Monthly Yearly Custom
  High: Low: Average:
Temperature: 17.2 °C 7.5 °C 11.4 °C
Dew Point: 7.9 °C 3 °C 5.3 °C
Humidity: 91% 40% 68%
Wind Speed: 12.9km/h 0km/h 4.8km/h
Wind Gust: 29km/h - -
Wind- - SSW
Pressure: 1015.8 hPa 1010.4 hPa -
Precipitation: 0.3 mm    
Historical Graphs
 
 
Tabular Data for May 8, 2011
Time Temperature Dew Point Pressure Wind Wind Speed Wind Gust Humidity Daily Rainfall
00:00 10.2 °C 6.9 °C 1010.4 hPa Calm     80% 0 mm
00:05 10.1 °C 6.8 °C 1010.4 hPa Calm     80% 0 mm
00:10 10.1 °C 6.8 °C 1010.4 hPa Calm     80% 0 mm
00:15 9.9 °C 6.7 °C 1010.7 hPa Calm     80% 0 mm
00:20 9.9 °C 6.7 °C 1010.7 hPa Calm   3.2 km/h 80% 0 mm
00:25 9.9 °C 6.8 °C 1010.7 hPa Calm   3.2 km/h 81% 0 mm
00:35 9.9 °C 6.8 °C 1010.4 hPa Calm     81% 0 mm
00:40 9.9 °C 6.6 °C 1010.4 hPa Calm   3.2 km/h 80% 0 mm
00:45 9.9 °C 6.6 °C 1010.7 hPa NNE 1.6 km/h 4.8 km/h 80% 0 mm
00:50 9.8 °C 6.6 °C 1010.7 hPa Calm   4.8 km/h 80% 0 mm
00:55 9.8 °C 6.4 °C 1010.7 hPa Calm   3.2 km/h 79% 0 mm
01:00 9.8 °C 6.4 °C 1010.7 hPa Calm   3.2 km/h 79% 0 mm
01:05 9.8 °C 6.3 °C 1010.7 hPa Calm     79% 0 mm
01:10 9.7 °C 6.4 °C 1010.7 hPa Calm     80% 0 mm
01:15 9.6 °C 6.3 °C 1010.7 hPa Calm     80% 0 mm
01:20 9.4 °C 6.1 °C 1010.7 hPa Calm     80% 0 mm
01:25 9.3 °C 6.2 °C 1010.7 hPa Calm     81% 0 mm
01:30 9.3 °C 6.2 °C 1010.7 hPa Calm     81% 0 mm
01:35 9.2 °C 6.1 °C 1010.7 hPa NNE 1.6 km/h 4.8 km/h 81% 0 mm
01:40 9.2 °C 6.1 °C 1010.7 hPa Calm   4.8 km/h 81% 0 mm
01:45 9.1 °C 5.9 °C 1010.7 hPa NNE 1.6 km/h 8 km/h 81% 0 mm
01:50 8.9 °C 5.9 °C 1010.7 hPa Calm   8 km/h 81% 0 mm
01:55 8.9 °C 5.9 °C 1010.4 hPa Calm   3.2 km/h 81% 0 mm
02:00 8.9 °C 5.8 °C 1010.4 hPa Calm     81% 0 mm
02:05 8.8 °C 5.9 °C 1010.7 hPa Calm     82% 0 mm
02:10 8.7 °C 5.8 °C 1010.4 hPa Calm     82% 0 mm
02:15 8.6 °C 5.7 °C 1010.7 hPa Calm   1.6 km/h 82% 0 mm
02:20 8.5 °C 5.6 °C 1010.7 hPa Calm   1.6 km/h 82% 0 mm
02:25 8.4 °C 5.7 °C 1010.7 hPa Calm     83% 0 mm
02:30 8.3 °C 5.6 °C 1010.7 hPa Calm     83% 0 mm
02:35 8.3 °C 5.6 °C 1010.7 hPa Calm     83% 0 mm
02:40 8.2 °C 5.7 °C 1010.7 hPa Calm     84% 0 mm
02:45 8.2 °C 5.6 °C 1010.7 hPa Calm     84% 0 mm
02:50 8.2 °C 5.6 °C 1010.7 hPa Calm     84% 0 mm
02:55 8.2 °C 5.8 °C 1010.7 hPa Calm     85% 0 mm
03:10 8.3 °C 5.7 °C 1010.7 hPa Calm   1.6 km/h 84% 0 mm
03:15 8.3 °C 5.9 °C 1010.7 hPa Calm     85% 0 mm
03:20 8.3 °C 5.8 °C 1010.7 hPa Calm   1.6 km/h 84% 0 mm
03:25 8.3 °C 5.7 °C 1011.1 hPa Calm   3.2 km/h 84% 0 mm
03:30 8.2 °C 5.7 °C 1011.1 hPa Calm   3.2 km/h 84% 0 mm
03:35 8.2 °C 5.8 °C 1011.1 hPa Calm     85% 0 mm
03:40 8.3 °C 5.9 °C 1011.1 hPa NNE 1.6 km/h 3.2 km/h 85% 0 mm
03:45 8.3 °C 6.1 °C 1011.1 hPa Calm   3.2 km/h 86% 0 mm
03:50 8.2 °C 5.9 °C 1011.1 hPa NNE 1.6 km/h 4.8 km/h 86% 0 mm
03:55 8.1 °C 6.1 °C 1011.1 hPa Calm   4.8 km/h 87% 0 mm
03:59 8 °C 5.9 °C 1011.1 hPa NW 4.8 km/h 8 km/h 87% 0 mm
04:05 7.9 °C 6.1 °C 1011.4 hPa NW 4.8 km/h 8 km/h 88% 0 mm
04:10 7.9 °C 6 °C 1011.4 hPa NW 4.8 km/h 8 km/h 88% 0 mm
04:15 7.8 °C 6.1 °C 1011.4 hPa Calm   8 km/h 89% 0 mm
04:20 7.7 °C 6 °C 1011.4 hPa Calm   6.4 km/h 89% 0 mm
04:25 7.7 °C 6 °C 1011.4 hPa NW 1.6 km/h 4.8 km/h 89% 0 mm
04:30 7.7 °C 5.9 °C 1011.4 hPa Calm   4.8 km/h 89% 0 mm
04:35 7.7 °C 5.9 °C 1011.4 hPa Calm   1.6 km/h 89% 0 mm
04:40 7.6 °C 5.9 °C 1011.4 hPa Calm   3.2 km/h 89% 0 mm
04:45 7.6 °C 6.1 °C 1011.7 hPa Calm   3.2 km/h 90% 0 mm
04:50 7.7 °C 6.1 °C 1011.7 hPa Calm   4.8 km/h 90% 0 mm
04:55 7.7 °C 6.1 °C 1011.7 hPa Calm   4.8 km/h 90% 0 mm
05:00 7.6 °C 6.1 °C 1011.7 hPa Calm   4.8 km/h 90% 0 mm
05:05 7.6 °C 6.1 °C 1011.7 hPa Calm   3.2 km/h 90% 0 mm
05:10 7.7 °C 6.1 °C 1011.7 hPa Calm   3.2 km/h 90% 0 mm
05:15 7.7 °C 6.1 °C 1012.1 hPa Calm   4.8 km/h 90% 0 mm
05:19 7.7 °C 6.1 °C 1012.1 hPa NW 1.6 km/h 4.8 km/h 90% 0 mm
05:25 7.7 °C 6.1 °C 1012.1 hPa Calm   3.2 km/h 90% 0 mm
05:30 7.6 °C 6.1 °C 1012.1 hPa NW 1.6 km/h 6.4 km/h 90% 0 mm
05:35 7.6 °C 6.1 °C 1012.1 hPa Calm   6.4 km/h 90% 0 mm
05:40 7.6 °C 6 °C 1012.4 hPa Calm   6.4 km/h 90% 0 mm
05:45 7.6 °C 6 °C 1012.4 hPa NW 1.6 km/h 6.4 km/h 90% 0 mm
05:50 7.6 °C 6 °C 1012.4 hPa NW 1.6 km/h 6.4 km/h 90% 0 mm
05:55 7.6 °C 6 °C 1012.4 hPa Calm   3.2 km/h 90% 0 mm
05:59 7.6 °C 6 °C 1012.8 hPa Calm   6.4 km/h 90% 0 mm
06:05 7.6 °C 6 °C 1012.8 hPa Calm   6.4 km/h 90% 0.3 mm
06:10 7.6 °C 6 °C 1012.8 hPa Calm   4.8 km/h 90% 0.3 mm
06:15 7.6 °C 6 °C 1012.8 hPa Calm   3.2 km/h 90% 0.3 mm
06:20 7.6 °C 6 °C 1012.8 hPa Calm   1.6 km/h 90% 0.3 mm
06:25 7.5 °C 5.9 °C 1012.8 hPa Calm   6.4 km/h 90% 0.3 mm
06:30 7.5 °C 5.9 °C 1012.8 hPa Calm   6.4 km/h 90% 0.3 mm
06:35 7.5 °C 5.9 °C 1013.1 hPa Calm   1.6 km/h 90% 0.3 mm
06:39 7.5 °C 5.9 °C 1013.1 hPa Calm   1.6 km/h 90% 0.3 mm
06:45 7.5 °C 6.1 °C 1013.1 hPa Calm   1.6 km/h 91% 0.3 mm
06:50 7.6 °C 6.2 °C 1013.1 hPa NW 1.6 km/h 4.8 km/h 91% 0.3 mm
06:54 7.6 °C 6.2 °C 1013.1 hPa Calm   4.8 km/h 91% 0.3 mm
07:00 7.6 °C 6.2 °C 1013.1 hPa Calm   1.6 km/h 91% 0.3 mm
07:05 7.6 °C 6.2 °C 1013.1 hPa NW 1.6 km/h 4.8 km/h 91% 0.3 mm
07:09 7.6 °C 6.2 °C 1013.1 hPa Calm   4.8 km/h 91% 0.3 mm
07:15 7.7 °C 6.3 °C 1013.1 hPa Calm   3.2 km/h 91% 0.3 mm
07:20 7.7 °C 6.3 °C 1013.1 hPa Calm   3.2 km/h 91% 0.3 mm
07:24 7.8 °C 6.4 °C 1013.4 hPa NW 1.6 km/h 3.2 km/h 91% 0.3 mm
07:30 7.8 °C 6.4 °C 1013.4 hPa Calm   3.2 km/h 91% 0.3 mm
07:35 7.9 °C 6.5 °C 1013.4 hPa Calm   6.4 km/h 91% 0.3 mm
07:40 7.9 °C 6.5 °C 1013.4 hPa Calm   6.4 km/h 91% 0.3 mm
07:45 7.9 °C 6.6 °C 1013.4 hPa NNW 1.6 km/h 4.8 km/h 91% 0.3 mm
07:50 8 °C 6.6 °C 1013.4 hPa Calm   4.8 km/h 91% 0.3 mm
07:55 8.1 °C 6.7 °C 1013.4 hPa Calm   4.8 km/h 91% 0.3 mm
08:00 8.1 °C 6.7 °C 1013.4 hPa Calm   4.8 km/h 91% 0.3 mm
08:05 8.1 °C 6.7 °C 1013.4 hPa NNW 1.6 km/h 4.8 km/h 91% 0.3 mm
08:10 8.1 °C 6.7 °C 1013.4 hPa Calm   4.8 km/h 91% 0.3 mm
08:14 8.1 °C 6.7 °C 1013.4 hPa Calm   3.2 km/h 91% 0.3 mm
08:20 8.1 °C 6.7 °C 1013.4 hPa Calm   1.6 km/h 91% 0.3 mm
08:25 8.2 °C 6.8 °C 1013.4 hPa NW 1.6 km/h 4.8 km/h 91% 0.3 mm
08:30 8.3 °C 6.9 °C 1013.4 hPa NNW 1.6 km/h 4.8 km/h 91% 0.3 mm
08:34 8.3 °C 6.8 °C 1013.8 hPa Calm   6.4 km/h 90% 0.3 mm
08:40 8.4 °C 6.8 °C 1013.8 hPa Calm   6.4 km/h 90% 0.3 mm
08:45 8.5 °C 6.9 °C 1013.4 hPa Calm   8 km/h 90% 0.3 mm
08:49 8.7 °C 7 °C 1013.8 hPa North 1.6 km/h 8 km/h 89% 0.3 mm
08:55 8.9 °C 7.2 °C 1013.4 hPa Calm   6.4 km/h 89% 0.3 mm
08:59 9 °C 7.1 °C 1013.8 hPa NNE 1.6 km/h 8 km/h 88% 0.3 mm
09:05 9.2 °C 7.1 °C 1013.8 hPa Calm   8 km/h 87% 0.3 mm
09:10 9.3 °C 7.1 °C 1013.8 hPa NNW 1.6 km/h 4.8 km/h 86% 0.3 mm
09:15 9.3 °C 7.1 °C 1013.8 hPa North 1.6 km/h 8 km/h 86% 0.3 mm
09:19 9.6 °C 7.3 °C 1013.8 hPa Calm   8 km/h 86% 0.3 mm
09:25 9.8 °C 7.3 °C 1013.8 hPa Calm   1.6 km/h 84% 0.3 mm
09:30 10.1 °C 7.6 °C 1013.8 hPa NNW 6.4 km/h 11.3 km/h 84% 0.3 mm
09:35 10.2 °C 7.3 °C 1013.8 hPa NNE 3.2 km/h 11.3 km/h 82% 0.3 mm
09:40 10.7 °C 7.9 °C 1013.8 hPa NNE 1.6 km/h 11.3 km/h 83% 0.3 mm
09:45 11.1 °C 7.4 °C 1013.8 hPa NNE 3.2 km/h 9.7 km/h 78% 0.3 mm
09:50 11.3 °C 7.4 °C 1013.8 hPa NNW 4.8 km/h 14.5 km/h 77% 0.3 mm
09:55 11.6 °C 7.5 °C 1013.8 hPa NNE 1.6 km/h 14.5 km/h 76% 0.3 mm
10:00 11.8 °C 7.1 °C 1013.8 hPa NNW 4.8 km/h 14.5 km/h 73% 0.3 mm
10:05 11.9 °C 7.3 °C 1013.8 hPa NE 4.8 km/h 12.9 km/h 73% 0.3 mm
10:10 12.2 °C 7.3 °C 1013.8 hPa NNE 6.4 km/h 12.9 km/h 72% 0.3 mm
10:15 12.4 °C 7.5 °C 1013.8 hPa NNW 4.8 km/h 12.9 km/h 72% 0.3 mm
10:20 12.4 °C 6.9 °C 1013.8 hPa NNW 6.4 km/h 12.9 km/h 69% 0.3 mm
10:25 12.3 °C 6.6 °C 1013.8 hPa NNW 4.8 km/h 12.9 km/h 68% 0.3 mm
10:30 12.2 °C 7.3 °C 1013.8 hPa NNW 4.8 km/h 9.7 km/h 72% 0.3 mm
10:35 11.9 °C 7.4 °C 1013.8 hPa NW 6.4 km/h 12.9 km/h 74% 0.3 mm
10:40 11.6 °C 7.1 °C 1013.8 hPa WNW 9.7 km/h 16.1 km/h 74% 0.3 mm
10:45 11.6 °C 7.3 °C 1013.8 hPa NW 3.2 km/h 16.1 km/h 75% 0.3 mm
10:50 11.7 °C 7.4 °C 1013.8 hPa NNW 3.2 km/h 12.9 km/h 75% 0.3 mm
10:55 11.9 °C 7.4 °C 1013.8 hPa NNW 6.4 km/h 11.3 km/h 74% 0.3 mm
11:00 12.1 °C 7 °C 1013.8 hPa NW 8 km/h 16.1 km/h 71% 0.3 mm
11:05 12.2 °C 7.1 °C 1013.8 hPa NNW 8 km/h 16.1 km/h 71% 0.3 mm
11:10 12.4 °C 7.3 °C 1013.8 hPa NW 6.4 km/h 11.3 km/h 71% 0.3 mm
11:15 12.7 °C 7.9 °C 1013.8 hPa Calm   12.9 km/h 73% 0.3 mm
11:20 12.8 °C 7.1 °C 1013.8 hPa NW 9.7 km/h 16.1 km/h 68% 0.3 mm
11:25 12.8 °C 7.4 °C 1013.8 hPa WNW 8 km/h 16.1 km/h 70% 0.3 mm
11:30 13.2 °C 7.4 °C 1013.8 hPa NW 6.4 km/h 14.5 km/h 68% 0.3 mm
11:35 13.3 °C 6.2 °C 1013.8 hPa NW 4.8 km/h 12.9 km/h 62% 0.3 mm
11:40 13.3 °C 6.9 °C 1013.8 hPa North 3.2 km/h 12.9 km/h 65% 0.3 mm
11:45 13.6 °C 6.4 °C 1013.8 hPa North 6.4 km/h 14.5 km/h 62% 0.3 mm
11:50 14.2 °C 6.6 °C 1013.8 hPa North 4.8 km/h 20.9 km/h 60% 0.3 mm
11:55 14.3 °C 5.9 °C 1013.8 hPa NNE 4.8 km/h 20.9 km/h 57% 0.3 mm
12:00 14.1 °C 5.7 °C 1013.8 hPa North 1.6 km/h 12.9 km/h 57% 0.3 mm
12:05 14.1 °C 5.2 °C 1013.8 hPa NNW 6.4 km/h 14.5 km/h 55% 0.3 mm
12:10 14 °C 6.1 °C 1013.8 hPa NNE 4.8 km/h 14.5 km/h 59% 0.3 mm
12:15 13.8 °C 6.2 °C 1013.8 hPa NNW 4.8 km/h 14.5 km/h 60% 0.3 mm
12:20 14 °C 6.6 °C 1013.8 hPa North 6.4 km/h 12.9 km/h 61% 0.3 mm
12:25 13.9 °C 7 °C 1013.8 hPa NNW 6.4 km/h 19.3 km/h 63% 0.3 mm
12:30 14.2 °C 7.1 °C 1013.8 hPa NW 3.2 km/h 19.3 km/h 62% 0.3 mm
12:40 13.6 °C 6 °C 1013.8 hPa NNW 8 km/h 17.7 km/h 60% 0.3 mm
12:45 13.5 °C 5.7 °C 1013.8 hPa NW 4.8 km/h 17.7 km/h 59% 0.3 mm
12:50 13.6 °C 6.2 °C 1013.8 hPa NW 3.2 km/h 16.1 km/h 61% 0.3 mm
12:55 13.8 °C 5.7 °C 1013.8 hPa NNW 6.4 km/h 14.5 km/h 58% 0.3 mm
13:00 14.1 °C 6 °C 1013.8 hPa NNW 6.4 km/h 16.1 km/h 58% 0.3 mm
13:05 14.3 °C 5.7 °C 1013.8 hPa NNW 8 km/h 17.7 km/h 56% 0.3 mm
13:10 14.5 °C 5.8 °C 1013.8 hPa Calm   17.7 km/h 56% 0.3 mm
13:15 14.5 °C 5.3 °C 1013.8 hPa NNW 1.6 km/h 12.9 km/h 54% 0.3 mm
13:20 14.6 °C 4.3 °C 1013.4 hPa NNE 3.2 km/h 12.9 km/h 50% 0.3 mm
13:25 14.4 °C 5 °C 1013.4 hPa NNE 1.6 km/h 14.5 km/h 53% 0.3 mm
13:30 14.8 °C 4.2 °C 1013.8 hPa NNE 8 km/h 17.7 km/h 49% 0.3 mm
13:35 14.7 °C 4.4 °C 1013.4 hPa NNW 3.2 km/h 17.7 km/h 50% 0.3 mm
13:45 14.8 °C 3.9 °C 1013.4 hPa NNW 6.4 km/h 14.5 km/h 48% 0.3 mm
13:50 15 °C 5.5 °C 1013.4 hPa East 9.7 km/h 19.3 km/h 53% 0.3 mm
13:55 15.3 °C 4.1 °C 1013.4 hPa North 12.9 km/h 20.9 km/h 47% 0.3 mm
14:00 15.2 °C 3.4 °C 1013.4 hPa NE 1.6 km/h 20.9 km/h 45% 0.3 mm
14:05 15.5 °C 4.2 °C 1013.4 hPa NNW 9.7 km/h 17.7 km/h 47% 0.3 mm
14:10 15.9 °C 3.7 °C 1013.4 hPa NE 8 km/h 19.3 km/h 44% 0.3 mm
14:15 15.9 °C 3.7 °C 1013.4 hPa North 8 km/h 20.9 km/h 44% 0.3 mm
14:20 15.5 °C 3.9 °C 1013.4 hPa North 3.2 km/h 20.9 km/h 46% 0.3 mm
14:25 15.5 °C 3.9 °C 1013.4 hPa NNE 6.4 km/h 17.7 km/h 46% 0.3 mm
14:30 15.6 °C 4.6 °C 1013.4 hPa NNW 4.8 km/h 17.7 km/h 48% 0.3 mm
14:35 15.6 °C 4.9 °C 1013.4 hPa NNW 4.8 km/h 16.1 km/h 49% 0.3 mm
14:40 16.2 °C 4.6 °C 1013.1 hPa NW 3.2 km/h 16.1 km/h 46% 0.3 mm
14:45 16.6 °C 3.9 °C 1013.4 hPa NNW 9.7 km/h 19.3 km/h 43% 0.3 mm
14:50 16.4 °C 3.8 °C 1013.4 hPa North 8 km/h 19.3 km/h 43% 0.3 mm
14:55 15.8 °C 3.3 °C 1013.4 hPa NNE 4.8 km/h 12.9 km/h 43% 0.3 mm
15:00 15.5 °C 3.3 °C 1013.1 hPa NNW 6.4 km/h 16.1 km/h 44% 0.3 mm
15:05 15.1 °C 3.6 °C 1013.4 hPa NW 8 km/h 19.3 km/h 46% 0.3 mm
15:10 15 °C 4.4 °C 1013.4 hPa NW 4.8 km/h 19.3 km/h 49% 0.3 mm
15:15 15 °C 3.2 °C 1013.1 hPa NE 3.2 km/h 16.1 km/h 45% 0.3 mm
15:20 15 °C 3.2 °C 1013.4 hPa North 1.6 km/h 12.9 km/h 45% 0.3 mm
15:25 15 °C 3.2 °C 1013.4 hPa NNW 3.2 km/h 12.9 km/h 45% 0.3 mm
15:30 15.1 °C 3.6 °C 1013.4 hPa NNE 3.2 km/h 14.5 km/h 46% 0.3 mm
15:35 15.4 °C 3.6 °C 1013.4 hPa NNW 8 km/h 19.3 km/h 45% 0.3 mm
15:40 15.8 °C 3.9 °C 1013.4 hPa NNW 9.7 km/h 20.9 km/h 45% 0.3 mm
15:45 16.1 °C 4.4 °C 1013.4 hPa North 6.4 km/h 20.9 km/h 46% 0.3 mm
15:50 16.1 °C 3.8 °C 1013.4 hPa NW 9.7 km/h 20.9 km/h 44% 0.3 mm
15:55 16 °C 4.1 °C 1013.4 hPa NNW 9.7 km/h 29 km/h 45% 0.3 mm
16:00 15.9 °C 4.3 °C 1013.4 hPa North 4.8 km/h 29 km/h 46% 0.3 mm
16:05 15.8 °C 3.6 °C 1013.4 hPa North 4.8 km/h 17.7 km/h 44% 0.3 mm
16:10 15.4 °C 3.6 °C 1013.4 hPa NW 8 km/h 20.9 km/h 45% 0.3 mm
16:15 15.6 °C 4 °C 1013.4 hPa NNE 6.4 km/h 20.9 km/h 46% 0.3 mm
16:20 15.8 °C 3.6 °C 1013.4 hPa NNW 11.3 km/h 27.4 km/h 44% 0.3 mm
16:25 16.2 °C 3.9 °C 1013.4 hPa NNE 8 km/h 27.4 km/h 44% 0.3 mm
16:30 16.6 °C 4.3 °C 1013.4 hPa North 3.2 km/h 20.9 km/h 44% 0.3 mm
16:35 16.9 °C 3.6 °C 1013.4 hPa NNE 6.4 km/h 20.9 km/h 41% 0.3 mm
16:40 17.2 °C 4.5 °C 1013.4 hPa NNW 4.8 km/h 14.5 km/h 43% 0.3 mm
16:45 16.9 °C 3.6 °C 1013.4 hPa NNE 3.2 km/h 14.5 km/h 41% 0.3 mm
16:50 16.7 °C 3.4 °C 1013.4 hPa NNE 6.4 km/h 16.1 km/h 41% 0.3 mm
16:55 16.8 °C 3.8 °C 1013.4 hPa NNE 1.6 km/h 16.1 km/h 42% 0.3 mm
17:00 17.1 °C 4.1 °C 1013.4 hPa North 6.4 km/h 16.1 km/h 42% 0.3 mm
17:05 17 °C 3.3 °C 1013.4 hPa North 6.4 km/h 22.5 km/h 40% 0.3 mm
17:10 16.7 °C 3.7 °C 1013.4 hPa North 11.3 km/h 22.5 km/h 42% 0.3 mm
17:15 16.4 °C 3.8 °C 1013.4 hPa NNW 12.9 km/h 22.5 km/h 43% 0.3 mm
17:20 16.6 °C 4 °C 1013.4 hPa NNW 6.4 km/h 22.5 km/h 43% 0.3 mm
17:25 16.8 °C 3.8 °C 1013.4 hPa North 8 km/h 20.9 km/h 42% 0.3 mm
17:30 16.8 °C 3.8 °C 1013.8 hPa NNW 12.9 km/h 22.5 km/h 42% 0.3 mm
17:35 16.1 °C 4.2 °C 1013.8 hPa NW 12.9 km/h 27.4 km/h 45% 0.3 mm
17:45 16.3 °C 4 °C 1013.8 hPa North 4.8 km/h 17.7 km/h 44% 0.3 mm
17:50 16.7 °C 4.4 °C 1013.4 hPa NNW 1.6 km/h 17.7 km/h 44% 0.3 mm
17:55 17.1 °C 4.4 °C 1013.4 hPa North 8 km/h 17.7 km/h 43% 0.3 mm
18:00 17.1 °C 4.4 °C 1013.8 hPa North 6.4 km/h 17.7 km/h 43% 0.3 mm
18:05 16.9 °C 3.9 °C 1013.8 hPa North 8 km/h 20.9 km/h 42% 0.3 mm
18:10 16.6 °C 4.3 °C 1013.8 hPa North 4.8 km/h 22.5 km/h 44% 0.3 mm
18:15 16.7 °C 4.4 °C 1013.8 hPa North 4.8 km/h 22.5 km/h 44% 0.3 mm
18:20 16.3 °C 4 °C 1013.8 hPa North 4.8 km/h 17.7 km/h 44% 0.3 mm
18:30 15.9 °C 3.7 °C 1014.1 hPa NNE 8 km/h 16.1 km/h 44% 0.3 mm
18:35 15.8 °C 3.6 °C 1014.1 hPa North 1.6 km/h 16.1 km/h 44% 0.3 mm
18:40 16.2 °C 4.2 °C 1014.1 hPa NNW 6.4 km/h 17.7 km/h 45% 0.3 mm
18:45 16.1 °C 3.8 °C 1014.1 hPa NNW 6.4 km/h 17.7 km/h 44% 0.3 mm
18:50 15.8 °C 3.9 °C 1014.1 hPa NNW 8 km/h 24.1 km/h 45% 0.3 mm
18:55 15.6 °C 3.7 °C 1014.1 hPa NNE 6.4 km/h 24.1 km/h 45% 0.3 mm
19:00 15.3 °C 3.7 °C 1014.1 hPa NNE 3.2 km/h 16.1 km/h 46% 0.3 mm
19:05 15 °C 3.5 °C 1014.1 hPa North 8 km/h 22.5 km/h 46% 0.3 mm
19:10 14.7 °C 3.6 °C 1014.1 hPa NNE 1.6 km/h 22.5 km/h 47% 0.3 mm
19:15 14.4 °C 3.3 °C 1014.4 hPa North 6.4 km/h 14.5 km/h 47% 0.3 mm
19:20 14.3 °C 3.7 °C 1014.4 hPa NNW 3.2 km/h 16.1 km/h 49% 0.3 mm
19:25 14.4 °C 3.2 °C 1014.4 hPa NNE 8 km/h 19.3 km/h 47% 0.3 mm
19:30 14.4 °C 3.5 °C 1014.4 hPa North 4.8 km/h 22.5 km/h 48% 0.3 mm
19:35 14.3 °C 3.2 °C 1014.4 hPa NNE 4.8 km/h 22.5 km/h 47% 0.3 mm
19:40 14.1 °C 3.3 °C 1014.4 hPa North 6.4 km/h 20.9 km/h 48% 0.3 mm
19:45 13.9 °C 3.3 °C 1014.8 hPa NNE 1.6 km/h 20.9 km/h 49% 0.3 mm
19:50 13.6 °C 3.4 °C 1014.8 hPa North 1.6 km/h 19.3 km/h 50% 0.3 mm
19:55 13.4 °C 3.2 °C 1014.8 hPa North 3.2 km/h 16.1 km/h 50% 0.3 mm
20:00 13.1 °C 3.2 °C 1014.8 hPa NNE 6.4 km/h 19.3 km/h 51% 0.3 mm
20:05 12.9 °C 3 °C 1014.8 hPa North 8 km/h 19.3 km/h 51% 0.3 mm
20:10 12.8 °C 3.4 °C 1014.8 hPa North 3.2 km/h 17.7 km/h 53% 0.3 mm
20:15 12.6 °C 3.3 °C 1014.8 hPa Calm   17.7 km/h 53% 0.3 mm
20:20 12.4 °C 3.7 °C 1015.1 hPa North 4.8 km/h 16.1 km/h 55% 0.3 mm
20:25 12.3 °C 3.3 °C 1015.1 hPa NNE 1.6 km/h 16.1 km/h 54% 0.3 mm
20:30 12.3 °C 3.2 °C 1015.1 hPa NNE 1.6 km/h 14.5 km/h 54% 0.3 mm
20:35 12.2 °C 3.4 °C 1015.1 hPa NNE 6.4 km/h 17.7 km/h 55% 0.3 mm
20:40 12.1 °C 3.3 °C 1015.1 hPa North 3.2 km/h 20.9 km/h 55% 0.3 mm
20:45 11.9 °C 3.2 °C 1015.1 hPa North 3.2 km/h 20.9 km/h 55% 0.3 mm
20:50 11.8 °C 3.1 °C 1015.1 hPa NNE 6.4 km/h 19.3 km/h 55% 0.3 mm
20:55 11.7 °C 3.4 °C 1015.5 hPa NNE 1.6 km/h 19.3 km/h 57% 0.3 mm
21:00 11.5 °C 3.3 °C 1015.5 hPa NE 3.2 km/h 12.9 km/h 57% 0.3 mm
21:05 11.3 °C 3.3 °C 1015.5 hPa North 1.6 km/h 14.5 km/h 58% 0.3 mm
21:10 11.1 °C 3.4 °C 1015.5 hPa Calm   17.7 km/h 59% 0.3 mm
21:15 10.9 °C 3.5 °C 1015.5 hPa NNE 1.6 km/h 17.7 km/h 60% 0.3 mm
21:25 10.7 °C 3.3 °C 1015.5 hPa Calm   12.9 km/h 60% 0.3 mm
21:30 10.7 °C 3.7 °C 1015.8 hPa NNE 3.2 km/h 12.9 km/h 62% 0.3 mm
21:35 10.6 °C 3.6 °C 1015.8 hPa North 3.2 km/h 12.9 km/h 62% 0.3 mm
21:40 10.6 °C 3.8 °C 1015.8 hPa North 3.2 km/h 12.9 km/h 63% 0.3 mm
21:45 10.4 °C 3.5 °C 1015.8 hPa North 1.6 km/h 9.7 km/h 62% 0.3 mm
21:50 10.3 °C 3.8 °C 1015.8 hPa NNE 1.6 km/h 9.7 km/h 64% 0.3 mm
21:55 10.3 °C 4.2 °C 1015.8 hPa Calm   9.7 km/h 66% 0.3 mm
22:00 10.1 °C 4.1 °C 1015.8 hPa NE 1.6 km/h 9.7 km/h 66% 0.3 mm
22:05 10 °C 3.9 °C 1015.8 hPa Calm   6.4 km/h 66% 0.3 mm
22:10 9.8 °C 4 °C 1015.8 hPa Calm   6.4 km/h 67% 0.3 mm
22:15 9.7 °C 3.7 °C 1015.8 hPa NNW 1.6 km/h 8 km/h 66% 0.3 mm
22:20 9.6 °C 3.6 °C 1015.8 hPa Calm   8 km/h 66% 0.3 mm
22:25 9.6 °C 3.7 °C 1015.8 hPa NNE 1.6 km/h 9.7 km/h 67% 0.3 mm
22:30 9.6 °C 3.7 °C 1015.5 hPa Calm   9.7 km/h 67% 0.3 mm
22:35 9.4 °C 3.8 °C 1015.8 hPa Calm   6.4 km/h 68% 0.3 mm
22:45 9.2 °C 4 °C 1015.8 hPa North 1.6 km/h 11.3 km/h 70% 0.3 mm
22:50 9.2 °C 4 °C 1015.8 hPa North 1.6 km/h 11.3 km/h 70% 0.3 mm
22:55 9.1 °C 4.1 °C 1015.8 hPa Calm   8 km/h 71% 0.3 mm
23:00 9.1 °C 3.9 °C 1015.8 hPa Calm   8 km/h 70% 0.3 mm
23:05 9.1 °C 3.9 °C 1015.8 hPa NNE 1.6 km/h 9.7 km/h 70% 0.3 mm
23:10 9.1 °C 3.9 °C 1015.8 hPa Calm   11.3 km/h 70% 0.3 mm
23:15 9.1 °C 4.1 °C 1015.8 hPa Calm   11.3 km/h 71% 0.3 mm
23:20 9 °C 3.8 °C 1015.8 hPa Calm   8 km/h 70% 0.3 mm
23:25 9 °C 4 °C 1015.8 hPa Calm   8 km/h 71% 0.3 mm
23:30 9 °C 4 °C 1015.8 hPa NNE 1.6 km/h 8 km/h 71% 0.3 mm
23:35 8.9 °C 3.9 °C 1015.8 hPa Calm   8 km/h 71% 0.3 mm
23:40 9 °C 4.2 °C 1015.8 hPa Calm   6.4 km/h 72% 0.3 mm
23:45 9.1 °C 4.1 °C 1015.8 hPa NNE 1.6 km/h 8 km/h 71% 0.3 mm
23:50 9.1 °C 4.1 °C 1015.8 hPa Calm   8 km/h 71% 0.3 mm
23:55 9.2 °C 4.2 °C 1015.8 hPa Calm   3.2 km/h 71% 0.3 mm
Westford Weather
Compliments of Weather Underground

 
 
Current Radar Loop:

Copyright © WestfordWeather.net 2007-2014. All rights reserved.